Time;durP1;ratioP1;P1;durP2;ratioP2;P2;SDS_P1;SDS_P2;PMS_P1;PMS_P2;Temp;Humidity;BMP_temperature;BMP_pressure;BME280_temperature;BME280_humidity;BME280_pressure;Samples;Min_cycle;Max_cycle;Signal;HPM_P1;HPM_P2
2023/10/04 00:01:16;;;;;;;;;;;;;;;21.01;52.47;102202.09;5045584;28;19921;-83
2023/10/04 00:03:41;;;;;;;;;;;;;;;21.00;52.25;102200.31;5031801;28;19924;-82
2023/10/04 00:06:08;;;;;;;;;;;;;;;21.00;52.46;102195.88;5047908;28;19921;-81
2023/10/04 00:08:33;;;;;;;;;;;;;;;20.99;52.46;102191.41;5039313;28;20424;-83
2023/10/04 00:11:01;;;;;;;;;;;;;;;20.99;52.42;102186.09;5052562;28;19952;-83
2023/10/04 00:13:26;;;;;;;;;;;;;;;20.99;52.47;102187.88;5024533;28;20394;-83
2023/10/04 00:15:52;;;;;;;;;;;;;;;21.00;52.12;102185.28;5045691;28;19947;-83
2023/10/04 00:18:17;;;;;;;;;;;;;;;20.98;52.11;102186.97;5026181;28;19999;-83
2023/10/04 00:20:43;;;;;;;;;;;;;;;20.97;52.23;102179.84;5033363;28;19921;-83
2023/10/04 00:23:09;;;;;;;;;;;;;;;20.95;52.33;102173.56;5048984;28;19912;-83
2023/10/04 00:25:35;;;;;;;;;;;;;;;20.94;52.17;102177.97;5045656;28;20416;-83
2023/10/04 00:28:02;;;;;;;;;;;;;;;20.91;52.31;102176.97;5038736;28;19913;-84
2023/10/04 00:30:29;;;;;;;;;;;;;;;20.92;52.19;102185.00;5028200;28;20003;-82
2023/10/04 00:32:55;;;;;;;;;;;;;;;20.89;52.42;102179.59;5033910;28;20395;-84
2023/10/04 00:35:21;;;;;;;;;;;;;;;20.90;52.30;102178.72;5050385;28;19920;-82
2023/10/04 00:37:57;;;;;;;;;;;;;;;20.91;52.34;102177.91;5033828;28;19922;-85
2023/10/04 00:40:27;;;;;;;;;;;;;;;20.92;52.16;102174.38;5030651;28;20385;-84
2023/10/04 00:42:55;;;;;;;;;;;;;;;20.90;52.22;102170.75;5033220;28;19960;-83
2023/10/04 00:45:22;;;;;;;;;;;;;;;20.87;52.33;102165.38;5049313;28;19917;-81
2023/10/04 00:47:50;;;;;;;;;;;;;;;20.89;52.19;102176.00;5050785;28;19967;-83
2023/10/04 00:50:17;;;;;;;;;;;;;;;20.88;52.34;102168.91;5027920;28;19924;-83
2023/10/04 00:53:03;;;;;;;;;;;;;;;20.87;52.41;102162.72;5032847;28;19923;-82
2023/10/04 00:55:29;;;;;;;;;;;;;;;20.88;52.41;102164.50;5040420;28;19967;-83
2023/10/04 00:57:55;;;;;;;;;;;;;;;20.86;52.44;102167.94;5038670;28;19952;-83
2023/10/04 01:00:21;;;;;;;;;;;;;;;20.85;52.26;102153.78;5032504;28;20385;-82
2023/10/04 01:02:47;;;;;;;;;;;;;;;20.82;52.48;102160.72;5016105;28;19994;-83
2023/10/04 01:05:14;;;;;;;;;;;;;;;20.84;52.10;102159.03;5032939;28;20389;-83
2023/10/04 01:07:39;;;;;;;;;;;;;;;20.84;52.12;102156.38;5036921;28;19921;-83
2023/10/04 01:10:06;;;;;;;;;;;;;;;20.81;52.19;102156.28;5049168;28;19916;-84
2023/10/04 01:12:32;;;;;;;;;;;;;;;20.79;52.30;102152.69;5023949;28;19921;-84
2023/10/04 01:15:12;;;;;;;;;;;;;;;20.81;52.08;102151.88;5031882;28;19921;-83
2023/10/04 01:17:37;;;;;;;;;;;;;;;20.79;52.16;102147.38;5037912;28;20102;-83
2023/10/04 01:20:09;;;;;;;;;;;;;;;20.78;52.06;102140.22;5049768;28;20501;-83
2023/10/04 01:22:35;;;;;;;;;;;;;;;20.76;52.44;102139.28;5048288;28;19917;-83
2023/10/04 01:25:00;;;;;;;;;;;;;;;20.74;52.33;102142.81;5035135;28;19924;-83
2023/10/04 01:27:27;;;;;;;;;;;;;;;20.73;52.08;102143.63;5049892;28;20483;-83
2023/10/04 01:29:53;;;;;;;;;;;;;;;20.74;52.26;102144.53;5037162;28;19952;-83
2023/10/04 01:32:19;;;;;;;;;;;;;;;20.78;52.10;102141.13;5053405;28;19998;-84
2023/10/04 01:34:44;;;;;;;;;;;;;;;20.74;52.18;102145.44;5030865;28;19983;-84
2023/10/04 01:37:10;;;;;;;;;;;;;;;20.73;51.95;102134.78;5045615;28;19997;-83
2023/10/04 01:39:36;;;;;;;;;;;;;;;20.70;52.23;102135.56;5046856;28;19912;-83
2023/10/04 01:42:02;;;;;;;;;;;;;;;20.69;52.17;102138.16;5049841;28;19923;-82
2023/10/04 01:44:27;;;;;;;;;;;;;;;20.68;52.12;102131.97;5049842;28;19916;-83
2023/10/04 01:46:56;;;;;;;;;;;;;;;20.69;52.37;102128.44;5029873;28;20298;-82
2023/10/04 01:49:21;;;;;;;;;;;;;;;20.65;52.18;102131.84;5047775;28;19913;-83
2023/10/04 01:51:47;;;;;;;;;;;;;;;20.65;52.28;102136.25;5035012;28;19951;-82
2023/10/04 01:54:12;;;;;;;;;;;;;;;20.66;52.18;102130.13;5050527;28;20475;-82
2023/10/04 01:56:37;;;;;;;;;;;;;;;20.68;52.21;102137.28;5028939;28;19917;-84
2023/10/04 01:59:03;;;;;;;;;;;;;;;20.63;52.25;102133.53;5040656;28;19920;-84
2023/10/04 02:01:29;;;;;;;;;;;;;;;20.63;52.11;102130.00;5026303;28;19956;-83
2023/10/04 02:03:54;;;;;;;;;;;;;;;20.62;52.37;102131.75;5044675;28;19913;-82
2023/10/04 02:06:20;;;;;;;;;;;;;;;20.61;52.24;102126.38;5054187;28;19967;-83
2023/10/04 02:08:45;;;;;;;;;;;;;;;20.61;52.16;102127.28;5041071;28;20291;-83
2023/10/04 02:11:12;;;;;;;;;;;;;;;20.60;52.12;102132.56;5042243;28;19921;-83
2023/10/04 02:13:40;;;;;;;;;;;;;;;20.63;52.30;102127.34;5043145;28;19921;-85
2023/10/04 02:16:08;;;;;;;;;;;;;;;20.63;52.17;102122.03;5034110;28;19924;-84
2023/10/04 02:18:34;;;;;;;;;;;;;;;20.57;52.34;102130.63;5033381;28;19971;-84
2023/10/04 02:20:59;;;;;;;;;;;;;;;20.59;52.34;102131.63;5048394;28;19917;-84
2023/10/04 02:23:25;;;;;;;;;;;;;;;20.57;52.41;102121.78;5052449;28;20043;-83
2023/10/04 02:25:51;;;;;;;;;;;;;;;20.57;52.25;102127.97;5051585;28;20009;-83
2023/10/04 02:28:23;;;;;;;;;;;;;;;20.58;52.23;102128.94;5051856;28;20378;-83
2023/10/04 02:30:48;;;;;;;;;;;;;;;20.55;52.29;102124.38;5023782;28;19956;-83
2023/10/04 02:33:14;;;;;;;;;;;;;;;20.51;52.26;102122.47;5050968;28;20047;-84
2023/10/04 02:35:44;;;;;;;;;;;;;;;20.52;52.36;102125.19;5032935;28;20015;-84
2023/10/04 02:38:16;;;;;;;;;;;;;;;20.53;52.05;102121.69;5041580;28;19921;-84
2023/10/04 02:40:50;;;;;;;;;;;;;;;20.54;52.18;102127.91;5016775;28;19940;-84
2023/10/04 02:43:17;;;;;;;;;;;;;;;20.49;52.05;102127.75;5048272;28;19917;-84
2023/10/04 02:45:43;;;;;;;;;;;;;;;20.48;52.20;102127.69;5037476;28;19978;-83
2023/10/04 02:48:11;;;;;;;;;;;;;;;20.46;52.33;102124.97;5030751;28;20356;-83
2023/10/04 02:50:41;;;;;;;;;;;;;;;20.48;51.99;102125.91;5037190;28;19917;-84
2023/10/04 02:53:08;;;;;;;;;;;;;;;20.46;52.40;102117.00;5049248;28;19921;-84
2023/10/04 02:55:35;;;;;;;;;;;;;;;20.43;52.32;102119.56;5051981;28;19983;-83
2023/10/04 02:58:01;;;;;;;;;;;;;;;20.44;52.50;102123.09;5035694;28;19913;-83
2023/10/04 03:00:26;;;;;;;;;;;;;;;20.44;52.29;102129.31;5053214;28;19923;-82
2023/10/04 03:02:53;;;;;;;;;;;;;;;20.43;52.35;102121.31;5052078;28;19927;-84
2023/10/04 03:05:19;;;;;;;;;;;;;;;20.41;52.32;102128.31;5018288;28;20006;-84
2023/10/04 03:07:50;;;;;;;;;;;;;;;20.40;52.06;102126.50;5030943;28;19917;-84
2023/10/04 03:10:23;;;;;;;;;;;;;;;20.39;51.93;102125.59;5043237;28;20379;-85
2023/10/04 03:13:01;;;;;;;;;;;;;;;20.37;52.35;102123.75;5049593;28;20358;-84
2023/10/04 03:15:28;;;;;;;;;;;;;;;20.36;52.09;102127.25;5029061;28;19917;-84
2023/10/04 03:17:57;;;;;;;;;;;;;;;20.34;52.28;102133.41;5018694;28;19913;-84
2023/10/04 03:20:23;;;;;;;;;;;;;;;20.36;52.49;102127.25;5052994;28;19916;-84
2023/10/04 03:22:50;;;;;;;;;;;;;;;20.36;52.31;102132.53;5025081;28;20401;-84
2023/10/04 03:25:15;;;;;;;;;;;;;;;20.34;52.50;102128.09;5040072;28;19920;-85
2023/10/04 03:27:44;;;;;;;;;;;;;;;20.34;52.63;102125.44;5050585;28;20707;-82
2023/10/04 03:30:14;;;;;;;;;;;;;;;20.31;52.56;102122.66;5049565;28;19920;-84
2023/10/04 03:32:52;;;;;;;;;;;;;;;20.32;52.43;102120.94;5028346;28;20401;-84
2023/10/04 03:35:20;;;;;;;;;;;;;;;20.32;52.66;102126.25;5030497;28;19960;-84
2023/10/04 03:38:05;;;;;;;;;;;;;;;20.26;52.72;102124.25;5030359;28;20453;-84
2023/10/04 03:40:34;;;;;;;;;;;;;;;20.28;52.62;102122.56;5011025;28;19946;-84
2023/10/04 03:43:05;;;;;;;;;;;;;;;20.27;52.64;102120.75;5031988;28;19957;-84
2023/10/04 03:45:32;;;;;;;;;;;;;;;20.28;52.50;102119.03;5016547;28;20032;-84
2023/10/04 03:47:58;;;;;;;;;;;;;;;20.32;52.44;102126.25;5045600;28;19921;-83
2023/10/04 03:50:24;;;;;;;;;;;;;;;20.29;52.39;102120.81;5028284;28;19917;-84
2023/10/04 03:52:52;;;;;;;;;;;;;;;20.25;52.55;102130.41;5049365;28;19916;-85
2023/10/04 03:55:18;;;;;;;;;;;;;;;20.25;52.52;102121.56;5022217;28;19992;-84
2023/10/04 03:57:44;;;;;;;;;;;;;;;20.25;52.52;102122.44;5047835;28;19924;-83
2023/10/04 04:00:11;;;;;;;;;;;;;;;20.27;52.23;102122.50;5036046;28;19916;-84
2023/10/04 04:02:38;;;;;;;;;;;;;;;20.26;52.31;102118.06;5031760;28;19923;-84
2023/10/04 04:05:05;;;;;;;;;;;;;;;20.24;52.43;102122.41;5031373;28;19932;-84
2023/10/04 04:07:31;;;;;;;;;;;;;;;20.25;52.40;102121.56;5023158;28;19939;-83
2023/10/04 04:09:56;;;;;;;;;;;;;;;20.22;52.50;102117.03;5036914;28;20370;-84
2023/10/04 04:12:22;;;;;;;;;;;;;;;20.22;52.26;102119.69;5044789;28;19920;-84
2023/10/04 04:14:48;;;;;;;;;;;;;;;20.23;52.46;102124.13;5049425;28;20015;-84
2023/10/04 04:17:14;;;;;;;;;;;;;;;20.21;52.33;102122.28;5044517;28;20036;-84
2023/10/04 04:19:39;;;;;;;;;;;;;;;20.23;52.05;102123.25;5043200;28;20367;-84
2023/10/04 04:22:05;;;;;;;;;;;;;;;20.22;52.31;102124.09;5040285;28;19924;-84
2023/10/04 04:24:31;;;;;;;;;;;;;;;20.18;52.03;102128.38;5045107;28;20366;-83
2023/10/04 04:27:00;;;;;;;;;;;;;;;20.20;52.01;102134.66;5022002;28;19917;-84
2023/10/04 04:29:27;;;;;;;;;;;;;;;20.17;52.53;102134.56;5047694;28;19948;-84
2023/10/04 04:31:52;;;;;;;;;;;;;;;20.18;52.32;102131.03;5015235;28;19927;-84
2023/10/04 04:34:18;;;;;;;;;;;;;;;20.18;52.17;102132.78;5048040;28;19916;-83
2023/10/04 04:36:46;;;;;;;;;;;;;;;20.15;52.29;102136.25;5047094;28;19935;-83
2023/10/04 04:39:16;;;;;;;;;;;;;;;20.13;52.41;102136.19;5040160;28;19916;-82
2023/10/04 04:41:42;;;;;;;;;;;;;;;20.12;52.35;102137.00;5045910;28;19958;-85
2023/10/04 04:44:08;;;;;;;;;;;;;;;20.10;52.62;102132.50;5032292;28;19943;-84
2023/10/04 04:46:34;;;;;;;;;;;;;;;20.11;52.49;102127.25;5049001;28;20287;-85
2023/10/04 04:49:00;;;;;;;;;;;;;;;20.09;52.20;102136.03;5026793;28;19928;-84
2023/10/04 04:51:25;;;;;;;;;;;;;;;20.11;52.42;102137.88;5048503;28;19917;-84
2023/10/04 04:53:51;;;;;;;;;;;;;;;20.08;52.32;102137.75;5046962;28;19924;-83
2023/10/04 04:56:18;;;;;;;;;;;;;;;20.07;52.35;102132.41;5046567;28;19940;-82
2023/10/04 04:58:44;;;;;;;;;;;;;;;20.06;52.62;102136.78;5030206;28;19917;-83
2023/10/04 05:01:11;;;;;;;;;;;;;;;20.06;52.55;102135.88;5049174;28;19938;-83
2023/10/04 05:03:41;;;;;;;;;;;;;;;20.06;52.53;102131.47;5042589;28;20389;-83
2023/10/04 05:06:06;;;;;;;;;;;;;;;20.05;52.63;102134.09;5044062;28;20012;-85
2023/10/04 05:08:38;;;;;;;;;;;;;;;20.06;52.45;102142.09;5027189;28;20035;-83
2023/10/04 05:11:05;;;;;;;;;;;;;;;20.04;52.41;102141.13;5026209;28;19948;-83
2023/10/04 05:13:31;;;;;;;;;;;;;;;20.03;52.27;102141.09;5031722;28;20430;-83
2023/10/04 05:15:56;;;;;;;;;;;;;;;20.02;52.51;102141.91;5048714;28;19955;-85
2023/10/04 05:18:22;;;;;;;;;;;;;;;20.05;52.21;102150.00;5031284;28;19978;-83
2023/10/04 05:20:56;;;;;;;;;;;;;;;20.02;52.23;102147.22;5048990;28;19944;-83
2023/10/04 05:23:22;;;;;;;;;;;;;;;20.07;52.40;102153.63;5011936;28;20004;-84
2023/10/04 05:25:48;;;;;;;;;;;;;;;20.03;52.27;102149.06;5043638;28;19920;-83
2023/10/04 05:28:14;;;;;;;;;;;;;;;20.03;52.07;102149.94;5045666;28;19963;-83
2023/10/04 05:30:44;;;;;;;;;;;;;;;20.00;52.46;102154.22;5047687;28;19956;-83
2023/10/04 05:33:10;;;;;;;;;;;;;;;20.00;52.44;102151.56;5023062;28;19920;-83
2023/10/04 05:35:55;;;;;;;;;;;;;;;20.00;52.52;102165.75;5027514;28;19928;-83
2023/10/04 05:38:21;;;;;;;;;;;;;;;19.97;52.37;102162.97;5048163;28;19940;-84
2023/10/04 05:40:46;;;;;;;;;;;;;;;19.98;52.39;102158.56;5016368;28;20374;-83
2023/10/04 05:43:12;;;;;;;;;;;;;;;19.95;52.47;102161.13;5043302;28;19921;-82
2023/10/04 05:45:47;;;;;;;;;;;;;;;19.98;52.38;102162.13;5030734;28;19920;-85
2023/10/04 05:48:14;;;;;;;;;;;;;;;19.97;52.54;102159.41;5031197;28;19921;-85
2023/10/04 05:50:39;;;;;;;;;;;;;;;19.93;52.31;102161.94;5032943;28;20386;-84
2023/10/04 05:53:06;;;;;;;;;;;;;;;19.98;52.50;102159.50;5051891;28;19917;-84
2023/10/04 05:55:32;;;;;;;;;;;;;;;19.98;52.37;102170.09;5046318;28;19925;-85
2023/10/04 05:57:58;;;;;;;;;;;;;;;19.94;52.47;102162.88;5031852;28;19927;-85
2023/10/04 06:00:56;;;;;;;;;;;;;;;19.94;52.47;102168.16;5051451;28;19916;-84
2023/10/04 06:03:15;;;;;;;;;;;;;;;19.91;52.58;102166.28;5045222;28;19983;-84
2023/10/04 06:05:55;;;;;;;;;;;;;;;19.92;52.48;102170.75;5050061;28;19920;-84
2023/10/04 06:08:21;;;;;;;;;;;;;;;19.92;52.66;102170.75;5048931;28;19917;-84
2023/10/04 06:11:02;;;;;;;;;;;;;;;19.91;52.58;102174.22;5045793;28;19955;-84
2023/10/04 06:13:28;;;;;;;;;;;;;;;19.90;52.81;102175.09;5044195;28;19921;-84
2023/10/04 06:15:53;;;;;;;;;;;;;;;19.91;52.65;102178.63;5050090;28;19929;-84
2023/10/04 06:18:19;;;;;;;;;;;;;;;19.92;52.65;102178.72;5014895;28;20360;-83
2023/10/04 06:20:45;;;;;;;;;;;;;;;19.94;52.90;102186.72;5048018;28;20019;-83
2023/10/04 06:23:11;;;;;;;;;;;;;;;19.89;52.72;102183.88;5038974;28;20030;-83
2023/10/04 06:25:41;;;;;;;;;;;;;;;19.88;52.75;102179.44;5029827;28;19917;-84
2023/10/04 06:28:07;;;;;;;;;;;;;;;19.87;53.13;102185.56;5047322;28;20371;-82
2023/10/04 06:30:33;;;;;;;;;;;;;;;19.85;53.11;102187.25;5028374;28;20349;-83
2023/10/04 06:33:03;;;;;;;;;;;;;;;19.87;53.11;102180.25;5051830;28;20440;-83
2023/10/04 06:35:29;;;;;;;;;;;;;;;19.85;53.25;102184.59;5009189;28;19925;-83
2023/10/04 06:37:55;;;;;;;;;;;;;;;19.87;53.03;102188.22;5033522;28;20463;-87
2023/10/04 06:40:21;;;;;;;;;;;;;;;19.89;53.02;102188.28;5029422;28;19925;-87
2023/10/04 06:42:48;;;;;;;;;;;;;;;19.92;53.04;102184.00;5018277;28;19924;-86
2023/10/04 06:45:17;;;;;;;;;;;;;;;19.89;53.05;102190.94;5049927;28;20555;-88
2023/10/04 06:47:44;;;;;;;;;;;;;;;19.85;53.31;102183.69;5041698;28;19923;-88
2023/10/04 06:50:13;;;;;;;;;;;;;;;19.90;53.27;102185.69;5021723;28;19916;-87
2023/10/04 06:52:39;;;;;;;;;;;;;;;19.87;53.28;102184.66;5012433;28;19917;-87
2023/10/04 06:55:08;;;;;;;;;;;;;;;19.93;53.14;102185.81;5016481;28;19927;-86
2023/10/04 06:57:33;;;;;;;;;;;;;;;19.80;53.17;102158.78;5045791;28;20007;-87
2023/10/04 06:59:59;;;;;;;;;;;;;;;19.97;53.12;102180.63;5039648;28;20020;-86
2023/10/04 07:02:25;;;;;;;;;;;;;;;19.86;53.25;102182.88;5037224;28;19931;-86
2023/10/04 07:04:51;;;;;;;;;;;;;;;19.91;53.13;102176.88;5051767;28;19921;-87
2023/10/04 07:07:17;;;;;;;;;;;;;;;19.90;53.37;102179.50;5016274;28;20372;-87
2023/10/04 07:09:43;;;;;;;;;;;;;;;19.91;53.19;102179.53;5034740;28;20340;-80
2023/10/04 07:12:09;;;;;;;;;;;;;;;19.90;53.20;102177.75;5032405;28;19924;-85
2023/10/04 07:14:34;;;;;;;;;;;;;;;19.87;53.24;102174.06;5030786;28;19924;-88
2023/10/04 07:17:00;;;;;;;;;;;;;;;19.96;52.93;102179.75;5032580;28;20424;-86
2023/10/04 07:19:28;;;;;;;;;;;;;;;19.90;53.33;102179.50;5042651;28;20048;-86
2023/10/04 07:21:55;;;;;;;;;;;;;;;19.93;53.23;102180.50;5023377;28;19925;-87
2023/10/04 07:24:22;;;;;;;;;;;;;;;19.93;53.21;102182.25;5049532;28;19923;-86
2023/10/04 07:26:48;;;;;;;;;;;;;;;19.90;53.40;102180.41;5043128;28;19920;-86
2023/10/04 07:29:13;;;;;;;;;;;;;;;19.91;53.34;102176.88;5049416;28;19935;-87
2023/10/04 07:31:39;;;;;;;;;;;;;;;19.82;53.51;102176.53;5031436;28;19917;-86
2023/10/04 07:34:05;;;;;;;;;;;;;;;19.89;53.52;102180.34;5034671;28;19925;-88
2023/10/04 07:36:30;;;;;;;;;;;;;;;19.93;53.32;102182.25;5030526;28;19928;-86
2023/10/04 07:38:56;;;;;;;;;;;;;;;19.89;53.32;102175.03;5013822;28;19924;-87
2023/10/04 07:41:23;;;;;;;;;;;;;;;19.88;53.30;102174.13;5032123;28;19917;-88
2023/10/04 07:43:48;;;;;;;;;;;;;;;19.92;53.17;102172.50;5014261;28;19983;-87
2023/10/04 07:46:13;;;;;;;;;;;;;;;19.88;53.41;102166.19;5029185;28;20386;-86
2023/10/04 07:48:39;;;;;;;;;;;;;;;19.84;53.60;102169.56;5041895;28;19967;-86
2023/10/04 07:51:04;;;;;;;;;;;;;;;19.85;53.59;102165.16;5042653;28;19954;-87
2023/10/04 07:53:30;;;;;;;;;;;;;;;19.81;53.94;102172.09;5045923;28;19995;-85
2023/10/04 07:55:56;;;;;;;;;;;;;;;19.78;53.93;102168.41;5047402;28;20578;-87
2023/10/04 07:58:21;;;;;;;;;;;;;;;19.84;54.00;102169.56;5044877;28;19925;-86
2023/10/04 08:00:47;;;;;;;;;;;;;;;19.90;53.75;102160.94;5045532;28;20035;-85
2023/10/04 08:03:14;;;;;;;;;;;;;;;19.78;54.14;102163.13;5046454;28;19921;-86
2023/10/04 08:05:39;;;;;;;;;;;;;;;19.88;53.85;102160.88;5039253;28;20389;-86
2023/10/04 08:08:06;;;;;;;;;;;;;;;19.89;53.54;102154.72;5032779;28;19927;-85
2023/10/04 08:10:33;;;;;;;;;;;;;;;19.91;53.73;102149.47;5028190;28;19932;-84
2023/10/04 08:12:59;;;;;;;;;;;;;;;19.87;53.79;102148.44;5022548;28;20434;-85
2023/10/04 08:15:26;;;;;;;;;;;;;;;19.88;53.85;102144.06;5025323;28;20356;-84
2023/10/04 08:17:52;;;;;;;;;;;;;;;19.89;53.94;102138.81;5040319;28;19917;-85
2023/10/04 08:20:19;;;;;;;;;;;;;;;19.89;54.08;102145.88;5025232;28;19921;-87
2023/10/04 08:22:45;;;;;;;;;;;;;;;19.90;53.82;102143.28;5049858;28;19913;-87
2023/10/04 08:25:12;;;;;;;;;;;;;;;19.87;54.34;102140.50;5031340;28;20356;-87
2023/10/04 08:27:39;;;;;;;;;;;;;;;19.82;54.59;102142.09;5031502;28;19921;-86
2023/10/04 08:30:05;;;;;;;;;;;;;;;19.88;54.31;102138.78;5039621;28;20011;-86
2023/10/04 08:32:30;;;;;;;;;;;;;;;19.83;54.55;102143.91;5022145;28;19924;-87
2023/10/04 08:34:57;;;;;;;;;;;;;;;19.93;54.30;102138.06;5054351;28;19916;-85
2023/10/04 08:37:23;;;;;;;;;;;;;;;19.85;54.51;102139.53;5032509;28;19950;-86
2023/10/04 08:39:48;;;;;;;;;;;;;;;19.90;54.43;102140.63;5022858;28;19920;-86
2023/10/04 08:42:14;;;;;;;;;;;;;;;19.86;54.20;102136.06;5022901;28;19917;-87
2023/10/04 08:44:39;;;;;;;;;;;;;;;19.90;54.57;102134.44;5031900;28;19924;-85
2023/10/04 08:47:08;;;;;;;;;;;;;;;19.78;55.01;102134.84;5016759;28;19921;-86
2023/10/04 08:49:38;;;;;;;;;;;;;;;19.89;54.60;102138.81;5021642;28;20306;-87
2023/10/04 08:52:06;;;;;;;;;;;;;;;19.93;54.57;102138.06;5047138;28;19917;-86
2023/10/04 08:54:32;;;;;;;;;;;;;;;19.96;54.25;102144.34;5048385;28;19916;-87
2023/10/04 08:57:14;;;;;;;;;;;;;;;19.90;55.06;102139.72;5020630;28;19956;-87
2023/10/04 08:59:40;;;;;;;;;;;;;;;19.77;55.18;102140.09;5053991;28;19939;-86
2023/10/04 09:02:07;;;;;;;;;;;;;;;19.72;55.24;102137.25;5049484;28;19924;-87
2023/10/04 09:04:32;;;;;;;;;;;;;;;19.82;54.96;102131.47;5010164;28;20451;-86
2023/10/04 09:06:58;;;;;;;;;;;;;;;19.71;55.07;102117.81;5013897;28;19917;-87
2023/10/04 09:09:23;;;;;;;;;;;;;;;19.80;54.85;102127.88;5010034;28;20306;-87
2023/10/04 09:11:49;;;;;;;;;;;;;;;19.69;54.99;102130.06;5007536;28;20007;-86
2023/10/04 09:14:15;;;;;;;;;;;;;;;19.68;55.24;102133.59;5027690;28;20374;-87
2023/10/04 09:16:41;;;;;;;;;;;;;;;19.66;55.22;102127.31;5013218;28;20345;-86
2023/10/04 09:19:08;;;;;;;;;;;;;;;19.67;54.98;102129.13;5012994;28;19917;-89
2023/10/04 09:21:38;;;;;;;;;;;;;;;19.79;54.80;102123.41;4996701;28;19917;-87
2023/10/04 09:24:09;;;;;;;;;;;;;;;19.73;54.88;102124.09;5025273;28;19920;-88
2023/10/04 09:26:36;;;;;;;;;;;;;;;19.75;54.73;102125.88;5029433;28;19917;-90
2023/10/04 09:29:01;;;;;;;;;;;;;;;19.74;54.81;102122.31;5012934;28;19925;-89
2023/10/04 09:31:29;;;;;;;;;;;;;;;19.91;54.67;102129.16;4991590;28;20011;-89
2023/10/04 09:34:17;;;;;;;;;;;;;;;20.05;54.21;102121.72;5028883;28;19917;-90
2023/10/04 09:36:43;;;;;;;;;;;;;;;20.03;54.10;102118.13;5023334;28;20461;-89
2023/10/04 09:39:09;;;;;;;;;;;;;;;19.91;54.63;102115.00;5001489;28;19960;-88
2023/10/04 09:41:41;;;;;;;;;;;;;;;20.06;54.22;102118.22;5023719;28;20303;-88
2023/10/04 09:44:25;;;;;;;;;;;;;;;20.03;54.41;102111.91;5012682;28;20316;-90
2023/10/04 09:46:54;;;;;;;;;;;;;;;19.78;55.28;102107.44;5027536;28;20326;-89
2023/10/04 09:49:40;;;;;;;;;;;;;;;19.94;54.81;102101.88;4995227;28;19924;-89
2023/10/04 09:52:12;;;;;;;;;;;;;;;20.07;54.88;102093.53;5011067;28;19924;-89
2023/10/04 09:54:38;;;;;;;;;;;;;;;20.00;54.75;102096.81;5013800;28;20418;-87
2023/10/04 09:57:06;;;;;;;;;;;;;;;20.06;54.67;102097.00;5012838;28;20059;-87
2023/10/04 09:59:33;;;;;;;;;;;;;;;20.06;54.49;102099.66;5018558;28;20420;-87
2023/10/04 10:01:59;;;;;;;;;;;;;;;20.12;54.27;102097.22;5011943;28;20039;-87
2023/10/04 10:04:31;;;;;;;;;;;;;;;20.07;54.73;102093.53;4992538;28;20295;-89
2023/10/04 10:10:10;;;;;;;;;;;;;;;20.09;54.62;102096.25;5008275;28;19977;-88
2023/10/04 10:15:21;;;;;;;;;;;;;;;20.00;54.67;102095.88;4995558;28;19924;-86
2023/10/04 10:17:51;;;;;;;;;;;;;;;20.03;54.59;102085.41;5020501;28;19925;-86
2023/10/04 10:20:16;;;;;;;;;;;;;;;20.19;54.51;102079.78;5013050;28;19913;-86
2023/10/04 10:22:57;;;;;;;;;;;;;;;20.27;54.30;102080.97;5012928;28;19924;-86
2023/10/04 10:25:23;;;;;;;;;;;;;;;20.21;54.32;102079.84;5034686;28;19939;-85
2023/10/04 10:27:49;;;;;;;;;;;;;;;20.06;54.93;102074.91;5018634;28;19917;-86
2023/10/04 10:30:16;;;;;;;;;;;;;;;20.07;54.75;102082.91;5000565;28;20306;-86
2023/10/04 10:32:54;;;;;;;;;;;;;;;20.10;54.71;102085.66;5000396;28;19913;-86
2023/10/04 10:35:59;;;;;;;;;;;;;;;20.12;54.69;102088.38;5004035;28;19918;-86
2023/10/04 10:38:29;;;;;;;;;;;;;;;20.04;54.94;102081.88;5000348;28;20047;-87
2023/10/04 10:40:54;;;;;;;;;;;;;;;20.12;54.85;102075.13;5000802;28;20867;-87
2023/10/04 10:43:20;;;;;;;;;;;;;;;20.16;54.59;102076.13;5005662;28;19913;-85
2023/10/04 10:45:46;;;;;;;;;;;;;;;20.13;54.57;102072.53;5012635;28;20430;-85
2023/10/04 10:48:12;;;;;;;;;;;;;;;20.11;54.94;102068.91;4989816;28;19920;-86
2023/10/04 10:50:39;;;;;;;;;;;;;;;20.13;54.83;102069.88;5003954;28;19924;-85
2023/10/04 10:53:06;;;;;;;;;;;;;;;20.01;54.83;102056.16;5015911;28;19924;-86
2023/10/04 10:55:34;;;;;;;;;;;;;;;20.08;55.09;102068.78;5032376;28;19924;-86
2023/10/04 10:58:00;;;;;;;;;;;;;;;20.06;54.94;102059.88;4997357;28;19917;-86
2023/10/04 11:00:31;;;;;;;;;;;;;;;20.04;55.17;102065.97;4996753;28;20025;-86
2023/10/04 11:03:33;;;;;;;;;;;;;;;20.07;54.81;102058.16;4998516;28;19920;-86
2023/10/04 11:05:59;;;;;;;;;;;;;;;20.09;55.06;102057.34;5051912;28;19927;-86
2023/10/04 11:08:25;;;;;;;;;;;;;;;20.04;54.89;102053.63;5030224;28;19913;-87
2023/10/04 11:10:50;;;;;;;;;;;;;;;20.07;55.09;102045.78;5031734;28;19916;-87
2023/10/04 11:13:18;;;;;;;;;;;;;;;20.03;55.41;102048.28;5038330;28;19919;-86
2023/10/04 11:15:46;;;;;;;;;;;;;;;20.02;55.41;102044.69;5047070;28;19986;-86
2023/10/04 11:18:13;;;;;;;;;;;;;;;20.10;55.61;102042.34;5035660;28;19912;-86
2023/10/04 11:20:39;;;;;;;;;;;;;;;20.02;55.83;102041.16;5034438;28;19917;-86
2023/10/04 11:23:07;;;;;;;;;;;;;;;19.87;56.19;102044.16;5052545;28;20302;-87
2023/10/04 11:25:32;;;;;;;;;;;;;;;19.85;56.43;102043.19;5034726;28;20449;-86
2023/10/04 11:27:58;;;;;;;;;;;;;;;19.84;56.09;102042.31;5014213;28;20016;-85
2023/10/04 11:30:23;;;;;;;;;;;;;;;19.88;56.26;102033.63;5045610;28;20356;-86
2023/10/04 11:32:50;;;;;;;;;;;;;;;19.90;56.11;102037.22;5043550;28;19917;-86
2023/10/04 11:35:16;;;;;;;;;;;;;;;20.01;55.72;102039.38;5050770;28;19920;-86
2023/10/04 11:37:44;;;;;;;;;;;;;;;20.02;55.87;102043.81;5034530;28;20392;-86
2023/10/04 11:40:11;;;;;;;;;;;;;;;20.08;55.72;102031.66;5031895;28;20317;-85
2023/10/04 11:42:37;;;;;;;;;;;;;;;20.21;55.29;102027.69;5040218;28;19971;-86
2023/10/04 11:45:23;;;;;;;;;;;;;;;20.22;55.34;102034.81;5032161;28;19951;-87
2023/10/04 11:48:01;;;;;;;;;;;;;;;20.10;55.91;102034.38;5034458;28;19912;-85
2023/10/04 11:50:48;;;;;;;;;;;;;;;20.08;56.01;102041.38;5050651;28;19924;-86
2023/10/04 11:53:33;;;;;;;;;;;;;;;20.06;56.15;102041.31;5032588;28;20053;-87
2023/10/04 11:55:59;;;;;;;;;;;;;;;20.11;56.21;102042.41;5033836;28;20336;-86
2023/10/04 11:58:33;;;;;;;;;;;;;;;20.07;56.37;102035.19;5033748;28;20208;-86
2023/10/04 12:01:05;;;;;;;;;;;;;;;20.09;56.36;102038.78;5013374;28;19917;-88
2023/10/04 12:03:32;;;;;;;;;;;;;;;20.09;56.65;102035.25;5040012;28;20279;-88
2023/10/04 12:05:59;;;;;;;;;;;;;;;20.09;57.01;102032.59;5009878;28;19931;-87
2023/10/04 12:08:25;;;;;;;;;;;;;;;20.12;57.30;102030.03;5013883;28;19917;-88
2023/10/04 12:10:51;;;;;;;;;;;;;;;20.17;57.23;102028.47;5046031;28;19917;-86
2023/10/04 12:13:16;;;;;;;;;;;;;;;20.21;56.93;102035.63;5022907;28;20004;-88
2023/10/04 12:15:42;;;;;;;;;;;;;;;20.26;56.81;102028.75;5020691;28;19921;-88
2023/10/04 12:18:09;;;;;;;;;;;;;;;20.24;57.30;102022.50;5024600;28;19923;-86
2023/10/04 12:20:36;;;;;;;;;;;;;;;20.36;57.37;102023.75;5029867;28;19928;-87
2023/10/04 12:23:04;;;;;;;;;;;;;;;20.56;56.79;102022.69;5009996;28;19914;-87
2023/10/04 12:25:29;;;;;;;;;;;;;;;20.56;56.34;102028.00;5005535;28;19920;-87
2023/10/04 12:27:55;;;;;;;;;;;;;;;20.51;56.50;102026.91;5008596;28;19918;-88
2023/10/04 12:30:23;;;;;;;;;;;;;;;20.42;56.38;102027.50;5027713;28;19922;-86
2023/10/04 12:32:48;;;;;;;;;;;;;;;20.41;56.48;102019.53;5013504;28;19924;-87
2023/10/04 12:35:14;;;;;;;;;;;;;;;20.39;56.55;102021.22;5030543;28;20314;-86
2023/10/04 12:37:40;;;;;;;;;;;;;;;20.39;56.67;102021.22;5031412;28;19913;-85
2023/10/04 12:40:28;;;;;;;;;;;;;;;20.36;56.77;102018.44;5013183;28;20401;-86
2023/10/04 12:42:52;;;;;;;;;;;;;;;20.41;56.62;102017.78;5021535;28;20081;-86
2023/10/04 12:45:18;;;;;;;;;;;;;;;20.41;56.70;102019.53;5020027;28;20090;-87